Time;durP1;ratioP1;P1;durP2;ratioP2;P2;SDS_P1;SDS_P2;PMS_P1;PMS_P2;Temp;Humidity;BMP_temperature;BMP_pressure;BME280_temperature;BME280_humidity;BME280_pressure;Samples;Min_cycle;Max_cycle;Signal;HPM_P1;HPM_P2
2023/06/25 00:01:05;;;;;;;2.50;2.40;;;21.90;99.90;;;22.37;84.40;101943.91;4724324;30;20048;-69
2023/06/25 00:03:34;;;;;;;2.58;2.47;;;21.80;99.90;;;22.23;85.44;101940.78;4708552;30;20493;-69
2023/06/25 00:06:02;;;;;;;2.10;2.00;;;21.70;99.90;;;22.20;85.76;101929.25;4727246;30;20053;-68
2023/06/25 00:08:30;;;;;;;2.10;2.00;;;21.70;99.90;;;22.13;84.74;101933.06;4727415;30;20461;-69
2023/06/25 00:10:59;;;;;;;2.20;2.10;;;21.60;99.90;;;22.06;84.16;101921.66;4721144;30;20057;-70
2023/06/25 00:13:27;;;;;;;2.40;2.30;;;21.60;99.90;;;22.16;84.03;101927.59;4727882;30;20057;-68
2023/06/25 00:15:57;;;;;;;3.08;2.97;;;21.70;99.90;;;22.13;83.87;101930.38;4729213;30;20065;-69
2023/06/25 00:18:26;;;;;;;2.53;2.42;;;21.60;99.90;;;21.43;85.53;101802.59;4728744;30;20458;-69
2023/06/25 00:20:55;;;;;;;2.53;2.42;;;21.60;99.90;;;22.07;85.35;101919.81;4728233;30;20103;-69
2023/06/25 00:23:24;;;;;;;2.30;2.20;;;21.60;99.90;;;22.08;84.73;101913.50;4729539;30;20066;-68
2023/06/25 00:25:53;;;;;;;2.22;2.13;;;21.60;99.90;;;21.43;85.32;101806.19;4727309;30;20493;-69
2023/06/25 00:28:21;;;;;;;2.20;2.10;;;21.50;99.90;;;22.09;85.44;101913.44;4730142;30;20064;-69
2023/06/25 00:30:49;;;;;;;2.45;2.35;;;21.60;99.90;;;22.10;84.60;101906.25;4727119;30;20119;-68
2023/06/25 00:33:19;;;;;;;2.20;2.10;;;21.60;99.90;;;22.16;84.54;101904.19;4729797;30;20067;-69
2023/06/25 00:36:08;;;;;;;2.60;2.47;;;21.60;99.90;;;22.26;84.89;101908.31;4712143;30;20415;-69
2023/06/25 00:38:38;;;;;;;2.28;2.17;;;21.70;99.90;;;22.28;83.98;101901.06;4718573;30;20152;-68
2023/06/25 00:41:08;;;;;;;;;;;21.80;99.90;;;22.17;83.95;101895.19;4720279;30;20470;-68
2023/06/25 00:43:40;;;;;;;2.30;2.20;;;21.70;99.90;;;22.18;83.49;101893.38;4713048;30;20352;-68
2023/06/25 00:46:12;;;;;;;2.45;2.35;;;21.70;99.90;;;22.19;82.99;101889.72;4703790;30;20053;-69
2023/06/25 00:48:45;;;;;;;2.60;2.50;;;21.70;99.90;;;22.21;84.13;101886.06;4713606;30;20064;-69
2023/06/25 00:51:15;;;;;;;2.22;2.13;;;21.70;99.90;;;22.40;83.92;101888.94;4725539;30;20067;-69
2023/06/25 00:53:45;;;;;;;2.83;2.70;;;21.90;99.90;;;22.50;83.56;101884.09;4729319;30;20061;-69
2023/06/25 00:56:15;;;;;;;3.10;2.97;;;22.00;99.90;;;22.43;83.70;101878.91;4727718;30;20065;-68
2023/06/25 00:58:43;;;;;;;2.70;2.60;;;22.00;99.90;;;22.49;83.82;101875.16;4712495;30;20060;-69
2023/06/25 01:01:26;;;;;;;2.28;2.17;;;22.10;99.90;;;22.58;83.66;101868.53;4712578;30;20061;-69
2023/06/25 01:04:03;;;;;;;2.25;2.15;;;22.20;99.90;;;22.68;83.49;101876.22;4720623;30;20151;-69
2023/06/25 01:06:35;;;;;;;2.67;2.58;;;22.20;99.90;;;22.65;83.36;101862.84;4728021;30;20049;-69
2023/06/25 01:09:06;;;;;;;2.58;2.47;;;22.30;99.90;;;22.75;83.34;101874.16;4727089;30;20049;-68
2023/06/25 01:11:35;;;;;;;2.17;2.08;;;22.40;99.90;;;22.75;83.58;101871.47;4728247;30;20084;-68
2023/06/25 01:14:03;;;;;;;2.53;2.42;;;22.40;99.90;;;22.86;83.23;101863.84;4719365;30;20474;-69
2023/06/25 01:16:32;;;;;;;2.33;2.22;;;22.50;99.90;;;22.94;82.90;101865.28;4718821;30;20053;-69
2023/06/25 01:19:02;;;;;;;10.38;9.75;;;22.60;99.90;;;23.03;82.72;101858.66;4719382;30;20458;-69
2023/06/25 01:21:35;;;;;;;2.40;2.30;;;22.70;99.90;;;22.43;82.25;101744.09;4722617;30;20404;-69
2023/06/25 01:24:06;;;;;;;2.58;2.45;;;22.70;99.90;;;22.40;81.90;101738.81;4728262;30;20459;-69
2023/06/25 01:26:35;;;;;;;2.22;2.13;;;22.80;99.90;;;23.16;82.04;101854.53;4726259;30;20835;-70
2023/06/25 01:29:04;;;;;;;2.30;2.20;;;22.80;99.90;;;23.13;81.97;101860.06;4727937;30;20054;-69
2023/06/25 01:31:33;;;;;;;2.40;2.30;;;22.80;99.90;;;23.17;82.01;101845.50;4717758;30;20049;-69
2023/06/25 01:34:02;;;;;;;2.35;2.25;;;22.80;99.90;;;22.47;82.02;101736.78;4717694;30;20526;-69
2023/06/25 01:36:31;;;;;;;2.22;2.13;;;22.80;99.90;;;23.15;82.13;101840.13;4718701;30;20056;-69
2023/06/25 01:38:59;;;;;;;5.75;5.45;;;22.80;99.90;;;23.19;81.85;101838.19;4722126;30;20052;-69
2023/06/25 01:41:29;;;;;;;2.15;2.05;;;22.80;99.90;;;23.26;82.10;101840.59;4726212;30;20463;-68
2023/06/25 01:43:57;;;;;;;2.20;2.10;;;22.90;99.90;;;23.25;82.02;101837.94;4726931;30;20469;-69
2023/06/25 01:46:26;;;;;;;2.70;2.50;;;22.90;99.90;;;23.27;81.67;101825.25;4728092;30;20354;-70
2023/06/25 01:48:55;;;;;;;2.22;2.13;;;22.90;99.90;;;23.25;81.93;101827.13;4710424;30;20059;-69
2023/06/25 01:51:23;;;;;;;2.35;2.25;;;22.90;99.90;;;22.73;81.71;101730.34;4709959;30;20064;-69
2023/06/25 01:53:52;;;;;;;2.25;2.15;;;23.00;99.90;;;23.32;81.73;101817.00;4710096;30;20136;-69
2023/06/25 01:56:21;;;;;;;2.50;2.40;;;23.00;99.90;;;23.36;81.68;101813.22;4712720;30;20059;-68
2023/06/25 01:58:53;;;;;;;2.10;2.00;;;23.00;99.90;;;23.35;81.91;101806.94;4710736;30;20057;-69
2023/06/25 02:01:21;;;;;;;2.40;2.30;;;23.10;99.90;;;23.37;81.88;101799.66;4726104;30;20057;-70
2023/06/25 02:03:50;;;;;;;2.30;2.20;;;23.00;99.90;;;23.43;82.04;101798.50;4727252;30;20638;-69
2023/06/25 02:06:18;;;;;;;2.60;2.50;;;23.10;99.90;;;23.44;81.80;101797.59;4726294;30;20083;-69
2023/06/25 02:08:47;;;;;;;2.13;2.03;;;23.10;99.90;;;23.40;81.95;101799.53;4728048;30;20118;-69
2023/06/25 02:11:15;;;;;;;2.08;1.98;;;23.10;99.90;;;23.36;82.13;101787.09;4724575;30;20520;-69
2023/06/25 02:13:44;;;;;;;2.10;2.00;;;23.00;99.90;;;23.19;82.10;101770.69;4712754;30;20057;-69
2023/06/25 02:16:14;;;;;;;2.10;2.00;;;23.00;99.90;;;23.37;82.18;101788.84;4716846;30;20147;-69
2023/06/25 02:18:43;;;;;;;2.22;2.13;;;23.00;99.90;;;23.39;82.12;101780.66;4718047;30;20512;-69
2023/06/25 02:21:11;;;;;;;2.15;2.05;;;23.00;99.90;;;23.36;82.01;101788.91;4709443;30;20053;-69
2023/06/25 02:23:39;;;;;;;2.30;2.20;;;23.00;99.90;;;23.29;82.31;101780.16;4709385;30;20492;-69
2023/06/25 02:26:09;;;;;;;2.20;2.10;;;23.00;99.90;;;23.28;82.52;101784.69;4724942;30;20053;-69
2023/06/25 02:28:37;;;;;;;2.88;2.78;;;23.00;99.90;;;23.09;83.04;101780.13;4725939;30;20072;-70
2023/06/25 02:31:06;;;;;;;2.45;2.35;;;22.80;99.90;;;23.08;83.36;101776.53;4727330;30;20064;-69
2023/06/25 02:33:36;;;;;;;2.10;2.00;;;22.70;99.90;;;23.07;84.02;101777.47;4725708;30;20049;-70
2023/06/25 02:36:05;;;;;;;2.20;2.10;;;22.70;99.90;;;23.10;83.77;101766.56;4728073;30;20115;-69
2023/06/25 02:38:33;;;;;;;2.45;2.35;;;22.70;99.90;;;23.03;83.80;101756.09;4728109;30;20295;-69
2023/06/25 02:41:02;;;;;;;2.38;2.25;;;22.70;99.90;;;22.96;84.04;101766.25;4724018;30;20507;-68
2023/06/25 02:43:31;;;;;;;2.35;2.25;;;22.60;99.90;;;22.85;84.78;101773.03;4711178;30;20056;-70
2023/06/25 02:46:00;;;;;;;2.47;2.38;;;22.50;99.90;;;22.57;84.82;101735.47;4709668;30;20527;-69
2023/06/25 02:48:28;;;;;;;2.50;2.40;;;22.40;99.90;;;22.77;85.55;101761.66;4710458;30;20059;-69
2023/06/25 02:50:58;;;;;;;2.30;2.20;;;22.40;99.90;;;22.89;85.48;101771.97;4717380;30;20094;-69
2023/06/25 02:53:26;;;;;;;2.40;2.30;;;22.50;99.90;;;22.96;84.93;101771.66;4727085;30;20063;-69
2023/06/25 02:55:55;;;;;;;2.28;2.17;;;22.60;99.90;;;22.98;84.58;101768.88;4716303;30;20570;-68
2023/06/25 02:58:23;;;;;;;2.47;2.38;;;22.60;99.90;;;23.00;84.80;101783.19;4726331;30;20144;-68
2023/06/25 03:00:52;;;;;;;2.83;2.72;;;22.60;99.90;;;23.06;84.10;101767.63;4708802;30;20068;-69
2023/06/25 03:03:20;;;;;;;2.15;2.05;;;22.60;99.90;;;22.89;84.89;101762.06;4718783;30;20059;-69
2023/06/25 03:05:51;;;;;;;2.40;2.30;;;22.60;99.90;;;22.84;85.26;101765.88;4709392;30;20065;-69
2023/06/25 03:08:21;;;;;;;2.45;2.35;;;22.50;99.90;;;22.92;84.88;101758.31;4724357;30;20052;-68
2023/06/25 03:10:49;;;;;;;2.28;2.17;;;22.50;99.90;;;22.93;84.86;101760.09;4710221;30;20068;-69
2023/06/25 03:13:18;;;;;;;2.25;2.15;;;22.50;99.90;;;22.90;84.91;101766.50;4726467;30;20061;-69
2023/06/25 03:15:46;;;;;;;2.25;2.15;;;22.60;99.90;;;22.79;85.30;101765.19;4716408;30;20091;-69
2023/06/25 03:18:15;;;;;;;2.97;2.88;;;22.40;99.90;;;22.79;85.57;101765.19;4725721;30;20059;-69
2023/06/25 03:20:43;;;;;;;2.33;2.22;;;22.40;99.90;;;22.77;85.86;101758.97;4715832;30;20089;-69
2023/06/25 03:23:12;;;;;;;2.50;2.40;;;22.40;99.90;;;22.75;86.29;101767.13;4727371;30;20522;-69
2023/06/25 03:25:43;;;;;;;2.75;2.65;;;22.30;99.90;;;22.66;86.47;101761.22;4712045;30;20530;-70
2023/06/25 03:28:19;;;;;;;2.65;2.55;;;22.30;99.90;;;22.73;86.54;101751.94;4710147;30;20143;-70
2023/06/25 03:30:48;;;;;;;3.70;3.50;;;22.30;99.90;;;22.81;86.20;101756.09;4716497;30;20051;-69
2023/06/25 03:33:18;;;;;;;2.50;2.40;;;22.40;99.90;;;22.84;85.98;101755.09;4725656;30;20052;-69
2023/06/25 03:35:47;;;;;;;2.38;2.28;;;22.50;99.90;;;22.76;86.12;101751.81;4724067;30;20053;-68
2023/06/25 03:38:15;;;;;;;2.33;2.22;;;22.40;99.90;;;22.70;85.87;101746.66;4724243;30;20129;-70
2023/06/25 03:40:45;;;;;;;2.08;1.98;;;22.30;99.90;;;22.54;86.80;101745.47;4700979;30;20083;-69
2023/06/25 03:43:13;;;;;;;2.38;2.28;;;22.10;99.90;;;22.54;87.11;101742.78;4708099;30;20115;-71
2023/06/25 03:45:42;;;;;;;2.28;2.17;;;22.10;99.90;;;22.63;87.12;101745.19;4710280;30;20500;-69
2023/06/25 03:48:11;;;;;;;3.28;3.08;;;22.20;99.90;;;22.71;86.98;101741.22;4722435;30;20149;-70
2023/06/25 03:50:39;;;;;;;2.45;2.35;;;22.30;99.90;;;22.72;86.60;101745.69;4724565;30;20057;-70
2023/06/25 03:53:08;;;;;;;2.60;2.50;;;22.40;99.90;;;22.79;86.25;101732.78;4725244;30;20052;-68
2023/06/25 03:55:39;;;;;;;2.53;2.42;;;22.40;99.90;;;22.74;86.05;101729.41;4725365;30;20057;-69
2023/06/25 03:58:09;;;;;;;2.20;2.10;;;22.40;99.90;;;22.21;85.78;101638.03;4723957;30;20590;-69
2023/06/25 04:00:37;;;;;;;3.20;3.10;;;22.40;99.90;;;22.58;86.53;101736.38;4716652;30;20061;-68
2023/06/25 04:03:06;;;;;;;2.75;2.65;;;22.30;99.90;;;22.64;86.30;101725.34;4700901;30;20514;-69
2023/06/25 04:05:35;;;;;;;2.30;2.20;;;22.30;99.90;;;22.71;86.01;101724.13;4701062;30;20155;-69
2023/06/25 04:08:05;;;;;;;2.60;2.50;;;22.40;99.90;;;22.73;85.93;101731.22;4720215;30;20056;-69
2023/06/25 04:10:33;;;;;;;2.40;2.30;;;22.40;99.90;;;22.75;85.77;101729.34;4708367;30;20053;-69
2023/06/25 04:13:02;;;;;;;3.38;3.22;;;22.40;99.90;;;22.71;85.55;101727.72;4725670;30;20107;-70
2023/06/25 04:15:31;;;;;;;2.55;2.45;;;22.40;99.90;;;22.54;86.24;101740.97;4715805;30;20061;-69
2023/06/25 04:18:00;;;;;;;2.58;2.47;;;22.20;99.90;;;22.44;86.80;101734.19;4710967;30;20507;-69
2023/06/25 04:20:31;;;;;;;2.60;2.50;;;22.10;99.90;;;22.31;87.41;101743.69;4723670;30;20064;-69
2023/06/25 04:23:01;;;;;;;2.67;2.58;;;22.00;99.90;;;22.31;87.62;101738.31;4715287;30;20060;-69
2023/06/25 04:25:30;;;;;;;2.83;2.73;;;21.90;99.90;;;22.29;87.97;101735.69;4715334;30;20111;-69
2023/06/25 04:27:59;;;;;;;2.78;2.67;;;21.90;99.90;;;22.24;88.17;101734.97;4707612;30;20071;-70
2023/06/25 04:30:27;;;;;;;2.47;2.38;;;21.90;99.90;;;22.35;88.35;101735.44;4709558;30;20057;-70
2023/06/25 04:32:58;;;;;;;2.60;2.50;;;21.90;99.90;;;22.29;88.43;101735.69;4716270;30;20049;-70
2023/06/25 04:35:26;;;;;;;3.22;3.03;;;21.90;99.90;;;22.13;88.71;101722.84;4725803;30;20064;-70
2023/06/25 04:37:58;;;;;;;2.30;2.20;;;21.80;99.90;;;22.17;88.72;101730.75;4715472;30;20068;-69
2023/06/25 04:40:26;;;;;;;2.53;2.42;;;21.80;99.90;;;22.02;89.15;101723.25;4722086;30;20142;-69
2023/06/25 04:42:55;;;;;;;2.47;2.38;;;21.70;99.90;;;21.51;89.37;101620.13;4710377;30;20079;-70
2023/06/25 04:45:23;;;;;;;2.38;2.28;;;21.70;99.90;;;22.13;89.16;101721.03;4723125;30;20060;-69
2023/06/25 04:47:51;;;;;;;2.35;2.25;;;21.80;99.90;;;22.37;89.20;101733.56;4716931;30;20056;-69
2023/06/25 04:50:22;;;;;;;2.58;2.47;;;21.90;99.90;;;22.35;88.62;101740.84;4726021;30;20148;-70
2023/06/25 04:52:50;;;;;;;2.40;2.30;;;22.00;99.90;;;22.38;88.45;101740.69;4719099;30;20061;-69
2023/06/25 04:55:19;;;;;;;2.63;2.53;;;22.00;99.90;;;22.43;88.47;101736.00;4728852;30;20072;-69
2023/06/25 04:57:47;;;;;;;2.33;2.22;;;22.00;99.90;;;22.51;88.16;101734.84;4727348;30;20114;-68
2023/06/25 05:00:17;;;;;;;3.58;3.38;;;22.10;99.90;;;22.45;88.03;101734.13;4713727;30;20061;-69
2023/06/25 05:02:45;;;;;;;2.78;2.67;;;22.10;99.90;;;22.57;88.15;101729.22;4726507;30;20056;-69
2023/06/25 05:05:13;;;;;;;2.40;2.30;;;22.20;99.90;;;22.61;87.94;101731.72;4719233;30;20052;-70
2023/06/25 05:07:43;;;;;;;2.63;2.53;;;22.30;99.90;;;22.64;87.79;101731.63;4719083;30;20053;-70
2023/06/25 05:10:12;;;;;;;2.50;2.40;;;22.30;99.90;;;22.85;87.71;101724.44;4719255;30;20044;-69
2023/06/25 05:12:40;;;;;;;2.17;2.08;;;22.40;99.90;;;22.90;87.00;101719.75;4719082;30;20310;-69
2023/06/25 05:15:10;;;;;;;2.25;2.15;;;22.60;99.90;;;22.81;86.30;101731.81;4727959;30;20057;-70
2023/06/25 05:17:38;;;;;;;2.37;2.27;;;22.60;99.90;;;23.01;86.46;101733.69;4727529;30;20057;-69
2023/06/25 05:20:08;;;;;;;2.40;2.30;;;22.70;99.90;;;23.03;86.09;101738.06;4728509;30;20150;-69
2023/06/25 05:22:37;;;;;;;2.78;2.67;;;22.70;99.90;;;23.15;85.79;101739.38;4726329;30;20057;-70
2023/06/25 05:25:07;;;;;;;2.30;2.20;;;22.80;99.90;;;23.28;85.26;101743.31;4729321;30;20052;-69
2023/06/25 05:27:36;;;;;;;2.53;2.42;;;22.90;99.90;;;23.20;84.92;101738.25;4718905;30;20087;-69
2023/06/25 05:30:05;;;;;;;2.28;2.17;;;23.00;99.90;;;23.41;84.68;101739.16;4718904;30;20057;-69
2023/06/25 05:32:34;;;;;;;2.67;2.58;;;23.10;99.90;;;23.50;84.02;101735.19;4718647;30;20132;-69
2023/06/25 05:35:02;;;;;;;2.53;2.42;;;23.20;99.90;;;23.62;83.39;101743.63;4722340;30;20044;-69
2023/06/25 05:37:31;;;;;;;2.38;2.28;;;23.30;99.90;;;23.73;82.64;101741.31;4727653;30;20049;-69
2023/06/25 05:39:59;;;;;;;2.40;2.30;;;23.40;99.90;;;23.73;82.43;101722.38;4726832;30;20125;-69
2023/06/25 05:42:29;;;;;;;2.80;2.70;;;23.50;99.90;;;23.92;81.50;101742.25;4728197;30;20067;-69
2023/06/25 05:44:58;;;;;;;2.30;2.20;;;23.60;99.90;;;24.08;81.76;101743.31;4725730;30;20057;-69
2023/06/25 05:47:26;;;;;;;2.70;2.50;;;23.70;99.90;;;24.09;81.30;101747.78;4718609;30;20085;-69
2023/06/25 05:49:55;;;;;;;2.58;2.47;;;23.70;99.90;;;24.26;80.60;101749.69;4725916;30;20083;-69
2023/06/25 05:52:23;;;;;;;2.13;2.03;;;23.90;99.90;;;23.93;80.20;101752.09;4728297;30;20072;-69
2023/06/25 05:54:51;;;;;;;3.58;3.38;;;23.70;99.90;;;24.12;81.55;101742.22;4726393;30;20061;-69
2023/06/25 05:57:20;;;;;;;2.40;2.30;;;23.70;99.90;;;24.23;81.35;101747.16;4727565;30;20098;-69
2023/06/25 05:59:50;;;;;;;4.35;3.17;;;23.80;99.90;;;24.13;80.21;101743.13;4725796;30;20061;-69
2023/06/25 06:02:18;;;;;;;3.78;3.45;;;23.80;99.90;;;24.01;81.10;101740.94;4726634;30;20099;-69
2023/06/25 06:04:47;;;;;;;2.25;2.15;;;23.70;99.90;;;23.97;80.36;101742.91;4712143;30;20061;-69
2023/06/25 06:07:15;;;;;;;3.10;2.90;;;23.50;99.90;;;24.24;81.21;101737.19;4725854;30;20094;-69
2023/06/25 06:09:44;;;;;;;3.67;3.40;;;23.70;99.90;;;24.47;80.94;101737.84;4728291;30;20052;-69
2023/06/25 06:12:13;;;;;;;12.30;4.93;;;24.00;99.90;;;24.41;80.24;101715.66;4718026;30;20053;-69
2023/06/25 06:14:41;;;;;;;3.42;3.22;;;24.10;99.90;;;24.23;77.41;101739.03;4718115;30;20385;-68
2023/06/25 06:17:11;;;;;;;3.40;3.20;;;23.90;99.90;;;24.32;78.92;101726.91;4718097;30;20053;-68
2023/06/25 06:19:39;;;;;;;3.50;3.17;;;23.80;99.90;;;24.20;80.71;101725.66;4721651;30;20110;-69
2023/06/25 06:22:08;;;;;;;3.00;2.90;;;23.70;99.90;;;24.17;80.68;101729.41;4726545;30;20104;-69
2023/06/25 06:24:36;;;;;;;7.55;3.83;;;23.70;99.90;;;24.34;79.16;101725.88;4726427;30;20061;-69
2023/06/25 06:27:06;;;;;;;4.45;3.35;;;23.80;99.90;;;24.57;78.22;101727.47;4727366;30;20057;-69
2023/06/25 06:29:34;;;;;;;3.42;3.22;;;24.10;99.90;;;24.52;77.17;101726.81;4725715;30;20407;-68
2023/06/25 06:32:03;;;;;;;2.00;1.90;;;24.00;99.90;;;24.70;78.43;101723.25;4727753;30;20049;-69
2023/06/25 06:34:33;;;;;;;2.28;2.17;;;24.20;99.90;;;24.66;75.91;101727.03;4716636;30;20111;-70
2023/06/25 06:37:02;;;;;;;4.40;4.10;;;24.20;99.90;;;24.72;76.59;101729.44;4717836;30;20072;-69
2023/06/25 06:39:30;;;;;;;2.97;2.88;;;24.20;99.90;;;24.62;76.25;101728.13;4717616;30;20307;-69
2023/06/25 06:41:59;;;;;;;2.60;2.45;;;24.20;99.90;;;24.86;74.23;101725.13;4709146;30;20057;-69
2023/06/25 06:44:27;;;;;;;2.97;2.80;;;24.30;99.90;;;24.94;75.02;101727.44;4718961;30;20068;-69
2023/06/25 06:46:56;;;;;;;3.92;3.38;;;24.40;99.90;;;24.96;71.32;101712.00;4710849;30;20075;-69
2023/06/25 06:49:24;;;;;;;5.47;4.97;;;24.60;99.90;;;24.71;71.66;101714.16;4726620;30;20111;-68
2023/06/25 06:51:54;;;;;;;3.40;2.60;;;24.30;99.90;;;24.75;68.60;101721.19;4725416;30;20057;-70
2023/06/25 06:54:22;;;;;;;2.78;2.58;;;24.30;99.90;;;24.88;69.24;101712.38;4727465;30;20060;-68
2023/06/25 06:56:51;;;;;;;2.25;2.15;;;24.40;99.90;;;25.20;68.90;101718.00;4724668;30;20067;-69
2023/06/25 06:59:19;;;;;;;2.78;2.42;;;24.60;99.90;;;25.38;66.66;101720.63;4701773;30;20531;-68
2023/06/25 07:01:49;;;;;;;2.30;2.17;;;24.90;99.90;;;25.29;65.95;101709.41;4716849;30;20049;-69
2023/06/25 07:04:17;;;;;;;3.30;3.08;;;24.80;99.90;;;25.40;64.94;101710.63;4720733;30;20396;-69
2023/06/25 07:06:45;;;;;;;2.03;1.92;;;24.90;99.90;;;25.35;64.30;101715.38;4725255;30;20089;-68
2023/06/25 07:09:22;;;;;;;1.95;1.88;;;24.90;99.90;;;25.44;61.16;101714.94;4726083;30;20123;-69
2023/06/25 07:11:53;;;;;;;2.10;2.00;;;24.90;99.90;;;25.76;59.11;101721.38;4727325;30;20056;-69
2023/06/25 07:14:21;;;;;;;2.30;2.20;;;25.30;99.90;;;25.99;58.62;101718.28;4723831;30;20040;-69
2023/06/25 07:16:50;;;;;;;2.60;2.50;;;25.60;99.90;;;26.17;57.94;101720.00;4715892;30;20115;-68
2023/06/25 07:19:18;;;;;;;2.75;2.55;;;25.80;99.90;;;26.38;56.71;101717.94;4717018;30;20512;-68
2023/06/25 07:21:46;;;;;;;3.47;3.20;;;26.00;99.90;;;26.57;54.66;101724.06;4716820;30;20052;-69
2023/06/25 07:24:16;;;;;;;2.20;2.10;;;26.20;99.90;;;26.52;55.17;101721.59;4708363;30;20061;-69
2023/06/25 07:26:44;;;;;;;1.70;1.70;;;26.20;99.90;;;26.61;53.59;101717.50;4723896;30;20122;-69
2023/06/25 07:29:13;;;;;;;2.20;2.10;;;26.20;99.90;;;26.72;50.63;101721.38;4725990;30;20147;-68
2023/06/25 07:31:41;;;;;;;1.75;1.70;;;26.40;99.90;;;26.91;51.18;101721.16;4725187;30;20102;-69
2023/06/25 07:34:10;;;;;;;1.85;1.85;;;26.60;99.90;;;26.92;49.46;101712.06;4726655;30;20056;-69
2023/06/25 07:36:38;;;;;;;2.42;2.33;;;26.70;99.90;;;27.13;48.85;101716.25;4723417;30;20083;-69
2023/06/25 07:39:07;;;;;;;3.97;3.72;;;26.80;99.90;;;26.83;49.31;101717.16;4727130;30;20060;-69
2023/06/25 07:41:36;;;;;;;1.80;1.80;;;26.50;99.90;;;27.14;49.39;101717.97;4716795;30;20057;-68
2023/06/25 07:44:05;;;;;;;1.50;1.50;;;26.70;99.90;;;27.29;48.39;101713.47;4707962;30;20072;-68
2023/06/25 07:46:53;;;;;;;1.80;1.80;;;26.90;99.90;;;27.50;48.85;101715.81;4723957;30;20438;-69
2023/06/25 07:49:22;;;;;;;1.50;1.50;;;27.20;99.90;;;27.48;47.31;101708.69;4708570;30;20117;-69
2023/06/25 07:51:51;;;;;;;1.60;1.60;;;27.20;99.90;;;27.46;47.59;101695.22;4726662;30;20126;-69
2023/06/25 07:54:20;;;;;;;1.83;1.83;;;27.30;99.90;;;27.73;46.99;101713.50;4724623;30;20128;-68
2023/06/25 07:56:50;;;;;;;1.60;1.60;;;27.50;99.90;;;27.76;47.73;101707.88;4710027;30;20046;-69
2023/06/25 07:59:18;;;;;;;1.42;1.42;;;27.50;99.90;;;27.93;48.24;101704.97;4725738;30;20061;-69
2023/06/25 08:01:47;;;;;;;2.42;2.33;;;27.60;99.90;;;27.60;47.48;101626.38;4724750;30;20056;-69
2023/06/25 08:04:15;;;;;;;1.35;1.35;;;27.90;99.90;;;28.29;46.02;101702.63;4710309;30;20064;-70
2023/06/25 08:06:44;;;;;;;1.50;1.50;;;28.10;99.90;;;28.50;46.07;101699.41;4723715;30;20049;-69
2023/06/25 08:09:12;;;;;;;9.48;7.20;;;28.30;99.90;;;28.66;44.59;101706.59;4726047;30;20147;-68
2023/06/25 08:11:40;;;;;;;1.50;1.50;;;28.40;99.90;;;28.79;44.74;101702.06;4707962;30;20447;-68
2023/06/25 08:14:10;;;;;;;1.20;1.20;;;28.60;99.90;;;28.97;45.25;101701.72;4726832;30;20053;-69
2023/06/25 08:16:39;;;;;;;1.30;1.30;;;28.80;99.90;;;28.97;41.46;101699.00;4724391;30;20057;-68
2023/06/25 08:19:07;;;;;;;1.20;1.20;;;28.80;99.90;;;29.09;41.16;101703.56;4725762;30;20122;-69
2023/06/25 08:21:36;;;;;;;1.15;1.15;;;28.90;99.90;;;29.15;40.87;101696.91;4725215;30;20407;-69
2023/06/25 08:24:05;;;;;;;1.20;1.20;;;28.90;99.90;;;29.29;42.62;101697.69;4725181;30;20053;-69
2023/06/25 08:26:33;;;;;;;1.60;1.60;;;29.00;99.90;;;29.44;41.90;101689.41;4728743;30;20091;-69
2023/06/25 08:29:02;;;;;;;1.35;1.35;;;29.30;99.90;;;29.52;40.77;101692.50;4711963;30;20065;-68
2023/06/25 08:31:32;;;;;;;1.40;1.40;;;29.30;99.90;;;29.71;41.76;101687.50;4729724;30;20052;-68
2023/06/25 08:34:01;;;;;;;1.30;1.30;;;29.40;99.90;;;29.80;38.35;101695.03;4726910;30;20123;-68
2023/06/25 08:36:29;;;;;;;1.88;1.55;;;29.50;97.60;;;29.74;37.83;101688.16;4729740;30;20139;-68
2023/06/25 08:38:58;;;;;;;1.10;1.10;;;29.50;95.60;;;29.76;37.94;101682.59;4727188;30;20053;-69
2023/06/25 08:41:26;;;;;;;1.30;1.30;;;29.50;96.40;;;29.73;37.48;101685.56;4728821;30;20053;-69
2023/06/25 08:43:55;;;;;;;1.33;1.33;;;29.40;94.30;;;29.83;37.73;101686.66;4727791;30;20104;-68
2023/06/25 08:46:25;;;;;;;1.23;1.23;;;29.50;95.40;;;29.39;37.94;101599.75;4728090;30;20118;-69
2023/06/25 08:48:56;;;;;;;1.35;1.35;;;29.60;97.00;;;29.91;37.71;101684.22;4728752;30;20144;-69
2023/06/25 08:51:25;;;;;;;1.20;1.20;;;29.60;95.20;;;29.81;37.00;101681.28;4726921;30;20144;-68
2023/06/25 08:53:57;;;;;;;1.10;1.10;;;29.50;93.10;;;29.95;37.67;101703.00;4729817;30;20114;-68
2023/06/25 08:56:25;;;;;;;1.38;1.38;;;29.60;95.70;;;29.98;37.14;101675.50;4727019;30;20053;-68
2023/06/25 08:58:54;;;;;;;1.35;1.35;;;29.70;93.90;;;30.10;37.93;101679.19;4729219;30;20056;-69
2023/06/25 09:01:22;;;;;;;1.17;1.17;;;29.80;97.30;;;30.18;37.52;101680.34;4727713;30;20064;-68
2023/06/25 09:03:54;;;;;;;1.00;1.00;;;29.80;95.80;;;29.80;37.35;101583.16;4728155;30;20470;-68
2023/06/25 09:06:23;;;;;;;1.10;1.10;;;30.00;94.80;;;30.43;37.39;101660.31;4728697;30;20049;-69
2023/06/25 09:08:51;;;;;;;1.25;1.25;;;30.10;96.10;;;30.53;35.76;101668.69;4727360;30;20088;-68
2023/06/25 09:11:20;;;;;;;1.17;1.17;;;30.20;86.50;;;30.57;35.58;101662.91;4729132;30;20106;-68
2023/06/25 09:13:48;;;;;;;1.15;1.15;;;30.30;83.10;;;30.61;35.88;101664.41;4726247;30;20052;-68
2023/06/25 09:16:16;;;;;;;1.20;1.20;;;30.30;85.80;;;30.86;35.45;101666.19;4719037;30;20496;-68
2023/06/25 09:18:45;;;;;;;1.13;1.13;;;30.50;83.00;;;30.98;35.56;101668.88;4718937;30;20061;-69
2023/06/25 09:21:14;;;;;;;1.02;1.02;;;30.70;84.30;;;31.01;36.27;101659.56;4719145;30;20049;-68
2023/06/25 09:23:51;;;;;;;1.00;1.00;;;30.80;88.90;;;31.23;35.92;101673.31;4708085;30;20064;-68
2023/06/25 09:26:19;;;;;;;0.93;0.93;;;30.90;86.00;;;31.22;35.91;101665.22;4727188;30;20056;-69
2023/06/25 09:28:51;;;;;;;1.00;1.00;;;30.90;86.10;;;31.34;35.57;101665.13;4728818;30;20053;-69
2023/06/25 09:31:20;;;;;;;0.90;0.90;;;31.00;83.00;;;31.37;34.68;101658.56;4724874;30;20055;-68
2023/06/25 09:33:51;;;;;;;1.10;1.10;;;31.20;78.30;;;30.93;35.24;101582.75;4720061;30;20474;-68
2023/06/25 09:36:21;;;;;;;1.00;1.00;;;31.20;80.60;;;31.25;34.38;101660.38;4726690;30;20056;-69
2023/06/25 09:39:08;;;;;;;1.88;1.27;;;31.00;74.20;;;31.25;34.55;101665.84;4710375;30;20057;-68
2023/06/25 09:41:40;;;;;;;1.20;1.20;;;31.00;76.30;;;31.37;33.69;101654.00;4728534;30;20418;-68
2023/06/25 09:44:09;;;;;;;1.33;1.33;;;31.10;71.90;;;31.22;34.77;101652.44;4725758;30;20065;-68
2023/06/25 09:46:39;;;;;;;1.10;1.10;;;30.90;75.50;;;31.33;34.36;101660.66;4727115;30;20057;-69
2023/06/25 09:49:08;;;;;;;1.00;1.00;;;31.00;74.50;;;31.35;35.24;101645.00;4727903;30;20082;-69
2023/06/25 09:51:49;;;;;;;1.00;1.00;;;31.10;77.90;;;31.24;34.32;101638.63;4726051;30;20049;-69
2023/06/25 09:54:23;;;;;;;0.90;0.90;;;31.00;72.20;;;31.29;33.92;101640.00;4711013;30;20522;-69
2023/06/25 09:56:52;;;;;;;1.00;1.00;;;31.00;71.60;;;31.50;34.81;101637.47;4726813;30;20448;-69
2023/06/25 09:59:22;;;;;;;0.95;0.95;;;31.20;76.70;;;31.70;34.17;101632.16;4726702;30;20053;-68
2023/06/25 10:01:53;;;;;;;0.93;0.93;;;31.40;73.00;;;31.78;33.16;101626.06;4725662;30;20084;-69
2023/06/25 10:04:23;;;;;;;1.00;1.00;;;31.50;68.50;;;31.89;35.42;101634.28;4718354;30;20057;-69
2023/06/25 10:06:53;;;;;;;1.08;1.08;;;31.60;78.40;;;31.92;34.69;101637.66;4718373;30;20501;-69
2023/06/25 10:09:21;;;;;;;0.90;0.90;;;31.70;75.80;;;31.84;34.59;101636.53;4718284;30;20060;-68
2023/06/25 10:11:51;;;;;;;1.02;1.02;;;31.60;74.40;;;31.85;34.29;101636.38;4721624;30;20114;-68
2023/06/25 10:14:19;;;;;;;1.10;1.10;;;31.60;72.40;;;32.03;33.35;101641.38;4727169;30;20060;-69
2023/06/25 10:16:54;;;;;;;1.17;1.13;;;31.70;69.90;;;31.96;36.13;101632.78;4710638;30;20053;-68
2023/06/25 10:19:24;;;;;;;1.00;1.00;;;31.80;82.50;;;32.08;36.26;101630.91;4725317;30;20049;-68
2023/06/25 10:22:06;;;;;;;1.00;1.00;;;31.80;83.40;;;31.90;34.54;101623.19;4728215;30;20148;-68